CYQG

Windsor Airport

Windsor, , Canada
METAR CYQG 201500Z 20017KT 6SM -RA BR FEW029 BKN040 OVC070 13/11 A2998 RMK CF1NS7AC1 CF TR SLP154
Observed Flight Rules
Feb-20 @ 15:00 UTC (2 hours ago) Visual Flight Rules
Wind Visibility Clouds Conditions
200° at 17 knots 6 miles
  • Few at 2,900' AGL
  • Broken at 4,000' AGL
  • Overcast at 7,000' AGL
  • Light Rain
  • Mist
Temperatures Readings
Current 13°C / 55°F
Dewpoint 11°C / 52°F
Humidity 88%
Altimeter 29.98" Hg
Pressure 1015.4 hPa
Elevation 190
METAR CYQG 201500Z 20017KT 6SM -RA BR FEW029 BKN040 OVC070 13/11 A2998 RMK CF1NS7AC1 CF TR SLP154
Observed Flight Rules
Feb-20 @ 15:00 UTC
(2 hours ago)
VFR
Wind Visibility
200° at 17 knots 6 miles
Clouds
  • Few at 2,900' AGL
  • Broken at 4,000' AGL
  • Overcast at 7,000' AGL
Conditions
  • Light Rain
  • Mist
Temperature Dewpoint
13°C / 55°F 11°C / 52°F
Humidity Altimeter Pressure
88% 29.98" Hg 1015.4 hPa